createdAt,value
2018-09-06T00:01:38.471Z,6.05
2018-09-06T00:07:33.438Z,5.52
2018-09-06T00:13:28.447Z,5.76
2018-09-06T00:19:23.467Z,6.83
2018-09-06T00:25:18.519Z,7.36
2018-09-06T00:31:13.548Z,5.91
2018-09-06T00:37:08.457Z,5.53
2018-09-06T00:43:03.561Z,5.29
2018-09-06T00:48:58.527Z,5.9
2018-09-06T00:54:53.467Z,7
2018-09-06T01:00:48.471Z,5.64
2018-09-06T01:06:43.475Z,5.35
2018-09-06T01:12:38.491Z,5.33
2018-09-06T01:18:33.509Z,5.53
2018-09-06T01:24:28.476Z,7.19
2018-09-06T01:30:23.481Z,6.73
2018-09-06T01:36:18.497Z,7.05
2018-09-06T01:42:13.545Z,6.2
2018-09-06T01:48:08.507Z,6.79
2018-09-06T01:54:03.523Z,4.95
2018-09-06T01:59:58.571Z,7.53
2018-09-06T02:05:53.520Z,7.12
2018-09-06T02:11:48.590Z,5.78
2018-09-06T02:17:43.544Z,5.72
2018-09-06T02:23:38.540Z,5.51
2018-09-06T02:29:33.562Z,7.8
2018-09-06T02:35:28.548Z,5.94
2018-09-06T02:41:23.591Z,5.61
2018-09-06T02:47:18.612Z,5.32
2018-09-06T02:53:13.562Z,5.69
2018-09-06T02:59:08.563Z,5.29
2018-09-06T03:05:03.571Z,7.46
2018-09-06T03:10:58.553Z,7.56
2018-09-06T03:16:53.639Z,5.75
2018-09-06T03:22:48.568Z,9.03
2018-09-06T03:28:43.587Z,5.79
2018-09-06T03:34:38.622Z,5.75
2018-09-06T03:40:33.601Z,9.14
2018-09-06T03:46:28.597Z,8.36
2018-09-06T03:52:23.590Z,8.77
2018-09-06T03:58:18.675Z,6.36
2018-09-06T04:04:13.620Z,8.52
2018-09-06T04:10:08.609Z,8.37
2018-09-06T04:16:03.619Z,9.79
2018-09-06T04:21:58.656Z,7.48
2018-09-06T04:27:53.616Z,8.82
2018-09-06T04:33:48.649Z,10.25
2018-09-06T04:39:43.638Z,9.12
2018-09-06T04:45:38.631Z,7.63
2018-09-06T04:51:33.642Z,7.01
2018-09-06T04:57:28.641Z,8.29
2018-09-06T05:03:24.355Z,9.4
2018-09-06T05:09:18.650Z,7.82
2018-09-06T05:15:13.646Z,8.59
2018-09-06T05:21:08.683Z,9.58
2018-09-06T05:27:03.685Z,10.64
2018-09-06T05:32:58.707Z,10.37
2018-09-06T05:38:53.677Z,8.76
2018-09-06T05:44:48.695Z,8.78
2018-09-06T05:50:43.702Z,9.23
2018-09-06T05:56:38.701Z,7.55
2018-09-06T06:02:33.698Z,8.05
2018-09-06T06:08:28.691Z,12.27
2018-09-06T06:14:23.701Z,21.91
2018-09-06T06:20:18.706Z,13.9
2018-09-06T06:26:13.713Z,12.14
2018-09-06T06:32:08.800Z,14.27
2018-09-06T06:38:03.758Z,11.3
2018-09-06T06:43:58.783Z,12.25
2018-09-06T06:49:53.768Z,18.95
2018-09-06T06:55:48.732Z,24.36
2018-09-06T07:01:43.738Z,25.2
2018-09-06T07:07:38.744Z,15.59
2018-09-06T07:13:33.721Z,14.96
2018-09-06T07:19:28.754Z,18.79
2018-09-06T07:25:23.756Z,15
2018-09-06T07:31:18.817Z,12.77
2018-09-06T07:37:13.788Z,11.69
2018-09-06T07:43:08.801Z,21.59
2018-09-06T07:49:03.811Z,13.3
2018-09-06T07:54:58.778Z,13.18
2018-09-06T08:00:53.789Z,12.07
2018-09-06T08:06:48.846Z,13.76
2018-09-06T08:12:43.808Z,17.24
2018-09-06T08:18:38.787Z,10.16
2018-09-06T08:24:33.815Z,8.91
2018-09-06T08:30:28.803Z,6.92
2018-09-06T08:36:23.802Z,13.49
2018-09-06T08:42:18.870Z,6.61
2018-09-06T08:48:13.828Z,7.95
2018-09-06T08:54:08.863Z,15.67
2018-09-06T09:00:03.844Z,10.82
2018-09-06T09:05:58.854Z,19.25
2018-09-06T09:11:54.643Z,17.43
2018-09-06T09:17:48.843Z,12.36
2018-09-06T09:23:43.872Z,12.85
2018-09-06T09:29:38.836Z,10.56
2018-09-06T09:35:33.875Z,7.83
2018-09-06T09:41:28.900Z,6.05
2018-09-06T09:53:18.885Z,6.25
2018-09-06T09:59:13.870Z,5.23
2018-09-06T10:05:08.878Z,4.31
2018-09-06T10:11:03.875Z,3
2018-09-06T10:16:58.888Z,4.24
2018-09-06T10:22:53.899Z,3.68
2018-09-06T10:28:48.924Z,3.04
2018-09-06T10:34:43.915Z,2.86
2018-09-06T10:40:39.008Z,3.02
2018-09-06T10:46:33.924Z,4.8
2018-09-06T10:52:28.956Z,3.2
2018-09-06T10:58:23.924Z,2.95
2018-09-06T11:04:18.941Z,3.92
2018-09-06T11:10:13.942Z,3.12
2018-09-06T11:16:08.938Z,3.63
2018-09-06T11:22:04.075Z,3.76
2018-09-06T11:27:59.027Z,3.81
2018-09-06T11:33:53.948Z,4.14
2018-09-06T11:39:49.025Z,3.3
2018-09-06T11:45:44.028Z,2.63
2018-09-06T11:51:38.970Z,2.73
2018-09-06T11:57:34.001Z,2.97
2018-09-06T12:03:28.986Z,3.02
2018-09-06T12:09:24.001Z,3.13
2018-09-06T12:15:19.048Z,2.74
2018-09-06T12:21:14.084Z,2.76
2018-09-06T12:27:09.659Z,4.81
2018-09-06T12:33:04.076Z,3.07
2018-09-06T12:38:59.035Z,2.94
2018-09-06T12:44:54.027Z,2.67
2018-09-06T12:50:49.038Z,3.23
2018-09-06T12:56:44.126Z,3.1
2018-09-06T13:02:39.088Z,3.94
2018-09-06T13:08:34.055Z,4.3
2018-09-06T13:14:29.072Z,2.97
2018-09-06T13:20:24.085Z,2.84
2018-09-06T13:26:19.057Z,3.72
2018-09-06T13:32:14.064Z,3.23
2018-09-06T13:38:09.112Z,3.76
2018-09-06T13:44:04.069Z,3.5
2018-09-06T13:49:59.091Z,3.31
2018-09-06T13:55:54.128Z,2.93
2018-09-06T14:01:49.174Z,3.03
2018-09-06T14:07:44.158Z,3.8
2018-09-06T14:13:39.091Z,3.35
2018-09-06T14:19:34.125Z,3.29
2018-09-06T14:25:29.153Z,3.5
2018-09-06T14:31:24.133Z,2.89
2018-09-06T14:37:19.133Z,3.3
2018-09-06T14:43:14.133Z,3.41
2018-09-06T14:49:09.179Z,4.36
2018-09-06T14:55:04.158Z,3.53
2018-09-06T15:00:59.158Z,3.87
2018-09-06T15:06:54.206Z,3.63
2018-09-06T15:12:49.165Z,5.39
2018-09-06T15:18:44.183Z,6.41
2018-09-06T15:24:39.191Z,4.09
2018-09-06T15:30:34.226Z,3.58
2018-09-06T15:36:29.196Z,4.08
2018-09-06T15:42:24.179Z,4.63
2018-09-06T15:48:19.228Z,7.67
2018-09-06T15:54:14.752Z,7.11
2018-09-06T16:00:09.271Z,4.48
2018-09-06T16:06:04.209Z,4.67
2018-09-06T16:11:59.225Z,5.75
2018-09-06T16:17:54.232Z,6.27
2018-09-06T16:23:49.222Z,5.55
2018-09-06T16:29:44.257Z,4.66
2018-09-06T16:35:39.290Z,4.69
2018-09-06T16:41:34.249Z,4.25
2018-09-06T16:47:29.243Z,4.95
2018-09-06T16:53:24.282Z,4.96
2018-09-06T16:59:19.265Z,5.28
2018-09-06T17:05:14.275Z,4.45
2018-09-06T17:11:09.268Z,5.55
2018-09-06T17:17:04.281Z,4.29
2018-09-06T17:22:59.271Z,4.42
2018-09-06T17:28:54.323Z,4.17
2018-09-06T17:34:49.288Z,3.9
2018-09-06T17:40:44.314Z,6.48
2018-09-06T17:46:39.306Z,5.52
2018-09-06T17:52:34.329Z,4.61
2018-09-06T17:58:29.313Z,5.02
2018-09-06T18:04:24.307Z,10.55
2018-09-06T18:10:19.344Z,6.2
2018-09-06T18:16:14.326Z,6
2018-09-06T18:22:09.321Z,6.24
2018-09-06T18:28:04.327Z,8.32
2018-09-06T18:33:59.348Z,6.27
2018-09-06T18:39:54.352Z,7.88
2018-09-06T18:45:49.353Z,7.23
2018-09-06T18:51:44.340Z,5.31
2018-09-06T18:57:39.370Z,4.27
2018-09-06T19:03:34.424Z,5.2
2018-09-06T19:09:29.374Z,4.19
2018-09-06T19:15:24.362Z,4.9
2018-09-06T19:21:19.370Z,6.14
2018-09-06T19:27:14.391Z,5.56
2018-09-06T19:33:09.378Z,5.77
2018-09-06T19:39:04.446Z,4.59
2018-09-06T19:44:59.403Z,7.01
2018-09-06T19:50:54.392Z,6.46
2018-09-06T19:56:49.391Z,6.9
2018-09-06T20:02:44.452Z,6.23
2018-09-06T20:08:39.419Z,7.57
2018-09-06T20:14:34.435Z,8.48
2018-09-06T20:20:29.446Z,7.92
2018-09-06T20:26:24.453Z,6.19
2018-09-06T20:32:19.433Z,8.58
2018-09-06T20:38:14.440Z,7.15
2018-09-06T20:44:09.485Z,6.53
2018-09-06T20:50:04.485Z,9.88
2018-09-06T20:55:59.455Z,7.26
2018-09-06T21:01:54.472Z,6.23
2018-09-06T21:07:49.745Z,7.47
2018-09-06T21:13:44.500Z,5.94
2018-09-06T21:19:39.473Z,8.27
2018-09-06T21:25:34.483Z,5.83
2018-09-06T21:31:29.484Z,5.98
2018-09-06T21:37:24.477Z,6.46
2018-09-06T21:43:19.505Z,6.39
2018-09-06T21:49:14.513Z,6.04
2018-09-06T21:55:09.512Z,10.46
2018-09-06T22:01:04.491Z,6.1
2018-09-06T22:06:59.504Z,5.56
2018-09-06T22:12:54.543Z,5.91
2018-09-06T22:18:49.523Z,5.78
2018-09-06T22:24:44.514Z,6.02
2018-09-06T22:30:39.505Z,7.83
2018-09-06T22:36:34.564Z,9.26
2018-09-06T22:42:29.540Z,6.82
2018-09-06T22:48:24.535Z,7.5
2018-09-06T22:54:19.572Z,6.9
2018-09-06T23:00:14.554Z,6.61
2018-09-06T23:06:09.558Z,8.31
2018-09-06T23:12:04.612Z,5.41
2018-09-06T23:17:59.552Z,5.15
2018-09-06T23:23:54.579Z,5.73
2018-09-06T23:29:49.577Z,5.85
2018-09-06T23:35:44.596Z,11.81
2018-09-06T23:41:39.612Z,6.82
2018-09-06T23:47:34.588Z,6.98
2018-09-06T23:53:29.610Z,8.48
2018-09-06T23:59:24.588Z,5.71
